Time;durP1;ratioP1;P1;durP2;ratioP2;P2;SDS_P1;SDS_P2;PMS_P1;PMS_P2;Temp;Humidity;BMP_temperature;BMP_pressure;BME280_temperature;BME280_humidity;BME280_pressure;Samples;Min_cycle;Max_cycle;Signal;HPM_P1;HPM_P2
2021/11/10 00:00:36;;;;;;;12.25;4.15;;;;;;;0.89;87.45;102896.78;1576929;89;21112;-61
2021/11/10 00:03:02;;;;;;;15.55;4.78;;;;;;;0.87;87.68;102899.78;1574133;89;21768;-61
2021/11/10 00:05:30;;;;;;;8.45;4.17;;;;;;;0.84;88.04;102898.83;1544523;92;21280;-61
2021/11/10 00:07:56;;;;;;;7.55;3.90;;;;;;;0.84;88.23;102904.11;1570235;89;21123;-61
2021/11/10 00:10:23;;;;;;;7.75;3.75;;;;;;;0.84;88.15;102908.47;1574541;89;21168;-62
2021/11/10 00:12:51;;;;;;;7.83;4.05;;;;;;;0.78;88.05;102905.19;1572599;89;21151;-62
2021/11/10 00:15:17;;;;;;;9.28;4.05;;;;;;;0.73;88.17;102906.72;1573039;91;21052;-62
2021/11/10 00:17:46;;;;;;;10.43;3.98;;;;;;;0.66;88.22;102897.67;1570201;91;21095;-61
2021/11/10 00:20:13;;;;;;;9.75;3.50;;;;;;;0.60;88.62;102895.20;1577296;89;21069;-61
2021/11/10 00:22:40;;;;;;;13.70;4.03;;;;;;;0.56;89.05;102905.63;1570694;90;21101;-62
2021/11/10 00:25:09;;;;;;;10.40;4.20;;;;;;;0.52;89.28;102902.80;1573803;91;21084;-61
2021/11/10 00:27:35;;;;;;;12.45;4.50;;;;;;;0.51;89.42;102920.36;1583118;90;21240;-62
2021/11/10 00:30:03;;;;;;;9.28;4.33;;;;;;;0.47;89.53;102901.27;1583963;88;21119;-61
2021/11/10 00:32:32;;;;;;;7.87;3.98;;;;;;;0.46;89.76;102902.11;1586371;89;21021;-61
2021/11/10 00:34:58;;;;;;;9.03;4.20;;;;;;;0.44;90.30;102909.07;1580917;89;21969;-62
2021/11/10 00:37:24;;;;;;;14.23;4.15;;;;;;;0.41;90.46;102901.91;1584684;89;21109;-61
2021/11/10 00:39:51;;;;;;;12.68;4.60;;;;;;;0.41;90.64;102906.30;1592408;88;21574;-60
2021/11/10 00:42:19;;;;;;;15.00;4.72;;;;;;;0.42;90.82;102904.15;1580938;89;21623;-60
2021/11/10 00:44:45;;;;;;;12.47;3.87;;;;;;;0.44;90.98;102907.75;1585476;89;21166;-61
2021/11/10 00:47:12;;;;;;;11.95;4.33;;;;;;;0.44;90.91;102901.15;1576232;90;21338;-61
2021/11/10 00:49:39;;;;;;;11.85;3.92;;;;;;;0.43;90.96;102899.35;1625274;86;21542;-61
2021/11/10 00:52:07;;;;;;;27.50;5.78;;;;;;;0.41;91.05;102901.03;1626114;87;22245;-61
2021/11/10 00:54:33;;;;;;;13.90;4.15;;;;;;;0.40;91.30;102908.47;1628312;88;21500;-61
2021/11/10 00:57:00;;;;;;;12.53;4.12;;;;;;;0.39;91.32;102906.66;1626109;86;21521;-62
2021/11/10 00:59:28;;;;;;;16.17;4.42;;;;;;;0.38;91.37;102922.02;1626894;86;21111;-61
2021/11/10 01:01:55;;;;;;;22.07;4.15;;;;;;;0.35;91.48;102913.98;1627091;87;21093;-61
2021/11/10 01:04:22;;;;;;;12.00;4.28;;;;;;;0.32;91.67;102916.45;1629469;87;21079;-61
2021/11/10 01:06:50;;;;;;;10.72;4.83;;;;;;;0.32;91.89;102916.45;1623768;87;21064;-61
2021/11/10 01:09:18;;;;;;;11.15;3.87;;;;;;;0.33;91.90;102921.81;1627866;86;21080;-61
2021/11/10 01:11:45;;;;;;;12.68;4.30;;;;;;;0.30;92.06;102928.69;1622069;87;21085;-61
2021/11/10 01:14:14;;;;;;;19.23;4.78;;;;;;;0.28;92.27;102931.28;1622779;87;21080;-61
2021/11/10 01:16:41;;;;;;;13.13;4.40;;;;;;;0.25;92.36;102938.64;1623099;86;21557;-63
2021/11/10 01:19:08;;;;;;;13.83;4.75;;;;;;;0.24;92.55;102947.39;1628267;86;21053;-61
2021/11/10 01:21:35;;;;;;;12.60;5.25;;;;;;;0.23;92.73;102949.98;1628977;86;21549;-62
2021/11/10 01:24:04;;;;;;;8.98;5.03;;;;;;;0.20;92.93;102956.02;1628629;87;21045;-61
2021/11/10 01:26:31;;;;;;;20.85;5.35;;;;;;;0.18;93.14;102960.72;1629434;86;21078;-61
2021/11/10 01:28:58;;;;;;;16.32;5.97;;;;;;;0.16;93.17;102965.95;1634796;86;21178;-61
2021/11/10 01:31:25;;;;;;;13.28;5.92;;;;;;;0.21;93.42;102972.33;1625104;87;21040;-61
2021/11/10 01:33:52;;;;;;;10.15;4.95;;;;;;;0.25;93.32;102976.90;1625802;87;21060;-61
2021/11/10 01:36:19;;;;;;;10.30;5.47;;;;;;;0.24;93.10;102977.73;1627221;86;21096;-61
2021/11/10 01:38:45;;;;;;;14.68;5.28;;;;;;;0.20;92.71;102977.52;1624481;86;21579;-61
2021/11/10 01:41:13;;;;;;;11.28;5.12;;;;;;;0.12;92.45;102988.66;1625468;87;21095;-62
2021/11/10 01:43:41;;;;;;;13.50;5.55;;;;;;;0.06;92.31;102988.79;1627042;87;21064;-61
2021/11/10 01:46:08;;;;;;;12.93;5.70;;;;;;;-0.02;92.39;102994.64;1630389;86;21055;-62
2021/11/10 01:48:36;;;;;;;10.38;5.42;;;;;;;-0.09;92.65;103004.44;1630494;86;21608;-61
2021/11/10 01:51:05;;;;;;;8.10;4.55;;;;;;;-0.14;92.74;103011.20;1626922;87;21627;-62
2021/11/10 01:53:32;;;;;;;14.28;4.17;;;;;;;-0.21;92.88;103014.41;1631194;86;21226;-61
2021/11/10 01:55:59;;;;;;;7.37;3.95;;;;;;;-0.23;93.03;103021.34;1627419;86;21444;-61
2021/11/10 01:58:27;;;;;;;10.60;4.78;;;;;;;-0.27;93.17;103025.56;1627700;87;21553;-61
2021/11/10 02:00:55;;;;;;;11.15;4.60;;;;;;;-0.30;93.32;103026.34;1627711;87;21023;-61
2021/11/10 02:03:22;;;;;;;12.85;4.55;;;;;;;-0.33;93.38;103034.11;1628294;86;21084;-61
2021/11/10 02:05:49;;;;;;;15.85;5.12;;;;;;;-0.36;93.36;103032.63;1627585;86;21172;-62
2021/11/10 02:08:34;;;;;;;;;;;;;;;-0.38;93.45;103030.33;1618528;87;21473;-61
2021/11/10 02:11:03;;;;;;;9.88;4.60;;;;;;;-0.41;93.54;103025.35;1624640;87;20212;-61
2021/11/10 02:13:31;;;;;;;11.95;4.80;;;;;;;-0.44;93.68;103033.61;1626617;87;21180;-61
2021/11/10 02:16:00;;;;;;;21.93;5.47;;;;;;;-0.46;94.16;103027.77;1627493;86;21087;-62
2021/11/10 02:18:28;;;;;;;16.35;5.87;;;;;;;-0.44;94.14;103024.78;1610408;88;22074;-62
2021/11/10 02:20:56;;;;;;;14.10;5.83;;;;;;;-0.44;94.35;103040.20;1625159;87;21163;-61
2021/11/10 02:23:23;;;;;;;16.48;5.72;;;;;;;-0.43;94.48;103031.86;1626642;87;21127;-61
2021/11/10 02:25:56;;;;;;;21.35;6.47;;;;;;;-0.41;94.90;103031.52;1628319;86;21564;-61
2021/11/10 02:28:18;;;;;;;12.95;5.75;;;;;;;-0.38;95.10;103028.12;1611723;86;21586;-61
2021/11/10 02:30:45;;;;;;;19.37;5.67;;;;;;;-0.35;95.11;103028.27;1609652;89;21168;-61
2021/11/10 02:33:13;;;;;;;14.90;5.33;;;;;;;-0.33;94.96;103035.44;1610536;86;21069;-61
2021/11/10 02:35:40;;;;;;;13.22;4.83;;;;;;;-0.33;94.83;103038.07;1587864;89;21054;-61
2021/11/10 02:38:07;;;;;;;21.90;5.70;;;;;;;-0.34;94.82;103044.57;1604913;88;21081;-61
2021/11/10 02:40:35;;;;;;;19.45;5.15;;;;;;;-0.36;94.84;103037.89;1597904;88;21539;-61
2021/11/10 02:43:02;;;;;;;11.35;5.70;;;;;;;-0.36;94.81;103031.30;1614121;86;21836;-56
2021/11/10 02:45:30;;;;;;;10.68;5.20;;;;;;;-0.36;94.57;103033.94;1612749;86;21547;-56
2021/11/10 02:47:57;;;;;;;26.00;5.87;;;;;;;-0.40;94.42;103037.27;1607924;87;21080;-56
2021/11/10 02:50:30;;;;;;;15.58;6.12;;;;;;;-0.43;94.33;103046.36;1612094;87;21355;-56
2021/11/10 02:52:59;;;;;;;14.63;5.78;;;;;;;-0.44;94.33;103055.09;1610060;86;21172;-57
2021/11/10 02:55:26;;;;;;;12.73;5.12;;;;;;;-0.46;94.40;103051.48;1592987;88;21840;-56
2021/11/10 02:57:53;;;;;;;18.70;5.28;;;;;;;-0.46;94.41;103050.17;1612619;87;21309;-56
2021/11/10 03:00:22;;;;;;;19.55;5.33;;;;;;;-0.43;94.30;103050.31;1611100;86;21076;-57
2021/11/10 03:02:54;;;;;;;23.07;5.37;;;;;;;-0.43;94.16;103050.31;1611795;86;21147;-56
2021/11/10 03:05:23;;;;;;;13.32;4.97;;;;;;;-0.45;94.16;103051.54;1610799;87;21129;-56
2021/11/10 03:07:51;;;;;;;15.13;5.85;;;;;;;-0.45;94.24;103051.97;1608015;88;21108;-56
2021/11/10 03:10:18;;;;;;;17.00;4.80;;;;;;;-0.45;94.22;103062.52;1590708;88;21146;-57
2021/11/10 03:12:46;;;;;;;17.00;6.05;;;;;;;-0.45;94.28;103077.02;1578036;88;21501;-57
2021/11/10 03:15:15;;;;;;;12.80;5.62;;;;;;;-0.44;94.24;103074.86;1605342;86;21151;-57
2021/11/10 03:17:42;;;;;;;21.05;7.37;;;;;;;-0.41;94.32;103078.08;1624397;87;21207;-57
2021/11/10 03:20:10;;;;;;;16.30;6.10;;;;;;;-0.38;94.32;103076.90;1606694;87;22108;-56
2021/11/10 03:22:38;;;;;;;17.40;5.53;;;;;;;-0.32;94.38;103079.42;1609820;86;21104;-56
2021/11/10 03:25:06;;;;;;;23.73;6.47;;;;;;;-0.25;94.22;103081.02;1613798;88;21080;-56
2021/11/10 03:27:33;;;;;;;13.98;6.28;;;;;;;-0.19;93.81;103079.98;1588279;89;21061;-56
2021/11/10 03:30:05;;;;;;;11.60;5.70;;;;;;;-0.14;93.81;103079.78;1618342;86;21108;-56
2021/11/10 03:32:34;;;;;;;13.03;6.42;;;;;;;-0.08;93.53;103080.09;1607462;86;21144;-56
2021/11/10 03:35:02;;;;;;;11.88;6.42;;;;;;;-0.04;93.34;103074.52;1643334;85;21084;-56
2021/11/10 03:37:31;;;;;;;10.55;5.25;;;;;;;0.01;93.27;103072.10;1635919;85;21723;-55
2021/11/10 03:39:59;;;;;;;9.70;5.28;;;;;;;0.08;93.10;103068.91;1634899;85;21521;-56
2021/11/10 03:42:26;;;;;;;12.85;5.72;;;;;;;0.11;92.74;103076.95;1606259;86;21607;-56
2021/11/10 03:44:52;;;;;;;13.65;5.35;;;;;;;0.13;92.62;103074.00;1601227;87;21457;-56
2021/11/10 03:47:19;;;;;;;9.33;4.55;;;;;;;0.17;92.49;103075.02;1636870;86;21128;-57
2021/11/10 03:49:46;;;;;;;11.30;5.60;;;;;;;0.16;92.29;103079.81;1638400;86;21104;-56
2021/11/10 03:52:14;;;;;;;9.83;4.85;;;;;;;0.13;92.39;103079.28;1650137;85;21085;-57
2021/11/10 03:54:42;;;;;;;13.03;5.20;;;;;;;0.16;92.37;103088.65;1644332;86;21063;-56
2021/11/10 03:57:09;;;;;;;10.53;4.87;;;;;;;0.16;92.22;103079.41;1601379;89;21166;-57
2021/11/10 03:59:37;;;;;;;9.63;5.10;;;;;;;0.17;92.08;103075.02;1601305;87;21076;-56
2021/11/10 04:02:06;;;;;;;8.73;5.28;;;;;;;0.16;92.01;103074.53;1629179;85;21079;-56
2021/11/10 04:04:33;;;;;;;10.78;4.97;;;;;;;0.15;91.94;103081.56;1645464;85;21597;-55
2021/11/10 04:06:59;;;;;;;13.15;5.15;;;;;;;0.14;92.06;103081.97;1645385;86;21062;-56
2021/11/10 04:09:27;;;;;;;13.45;5.90;;;;;;;0.16;91.95;103095.25;1619738;86;21843;-56
2021/11/10 04:11:55;;;;;;;11.22;5.35;;;;;;;0.18;91.77;103092.66;1625649;85;21119;-57
2021/11/10 04:14:21;;;;;;;10.15;5.20;;;;;;;0.18;91.76;103090.94;1624322;86;21068;-57
2021/11/10 04:16:49;;;;;;;8.95;5.67;;;;;;;0.20;91.76;103094.95;1626165;87;21019;-56
2021/11/10 04:19:18;;;;;;;10.23;5.65;;;;;;;0.20;91.71;103093.23;1635146;85;21158;-55
2021/11/10 04:21:45;;;;;;;9.80;5.75;;;;;;;0.22;91.77;103098.16;1606596;88;21846;-55
2021/11/10 04:24:11;;;;;;;13.38;7.22;;;;;;;0.24;91.76;103096.48;1610401;87;21076;-55
2021/11/10 04:26:39;;;;;;;13.72;5.95;;;;;;;0.26;91.67;103096.57;1607367;87;21080;-56
2021/11/10 04:29:10;;;;;;;13.80;5.87;;;;;;;0.26;91.55;103096.14;1616539;85;21139;-57
2021/11/10 04:31:38;;;;;;;14.90;5.95;;;;;;;0.27;91.61;103100.58;1641758;86;21119;-56
2021/11/10 04:34:05;;;;;;;10.40;5.90;;;;;;;0.27;91.58;103102.33;1612947;88;21107;-55
2021/11/10 04:36:33;;;;;;;12.75;5.65;;;;;;;0.28;91.59;103099.75;1645903;85;21072;-57
2021/11/10 04:39:01;;;;;;;16.75;4.95;;;;;;;0.32;91.39;103103.84;1637920;85;21503;-55
2021/11/10 04:41:28;;;;;;;10.20;4.78;;;;;;;0.33;91.37;103105.64;1640066;86;21047;-56
2021/11/10 04:43:57;;;;;;;15.28;4.92;;;;;;;0.35;91.27;103112.81;1609314;88;21372;-56
2021/11/10 04:48:54;;;;;;;14.65;5.47;;;;;;;0.37;91.14;103099.70;1599451;87;21505;-57
2021/11/10 04:51:23;;;;;;;12.68;5.28;;;;;;;0.39;91.04;103116.50;1635125;86;21111;-56
2021/11/10 04:53:50;;;;;;;13.75;5.83;;;;;;;0.42;90.72;103116.64;1610373;87;21079;-57
2021/11/10 04:56:20;;;;;;;12.35;6.05;;;;;;;0.48;90.03;103115.59;1602006;87;21103;-57
2021/11/10 04:58:46;;;;;;;12.37;5.83;;;;;;;0.51;89.73;103122.31;1609775;86;21646;-56
2021/11/10 05:03:47;;;;;;;10.68;4.42;;;;;;;0.59;89.88;103134.98;1620052;86;24607;-56
2021/11/10 05:06:16;;;;;;;20.02;4.95;;;;;;;0.62;89.76;103134.68;1610108;87;21097;-57
2021/11/10 05:08:43;;;;;;;14.40;5.80;;;;;;;0.65;89.42;103122.05;1612604;86;21120;-56
2021/11/10 05:11:12;;;;;;;33.20;5.22;;;;;;;0.66;89.14;103123.84;1594197;88;21807;-56
2021/11/10 05:13:39;;;;;;;13.32;3.77;;;;;;;0.69;88.58;103126.22;1611726;88;21633;-56
2021/11/10 05:16:06;;;;;;;9.60;4.00;;;;;;;0.72;88.11;103137.31;1609583;87;21688;-57
2021/11/10 05:18:33;;;;;;;12.78;4.28;;;;;;;0.77;88.19;103133.13;1591109;88;21213;-56
2021/11/10 05:21:00;;;;;;;12.45;3.67;;;;;;;0.83;86.98;103149.27;1588735;88;21085;-57
2021/11/10 05:23:28;;;;;;;12.30;3.35;;;;;;;0.87;86.35;103148.09;1640009;86;21087;-56
2021/11/10 05:25:54;;;;;;;16.20;4.17;;;;;;;0.90;85.05;103165.39;1644145;85;22028;-57
2021/11/10 05:28:22;;;;;;;18.75;4.53;;;;;;;0.91;84.69;103157.55;1641657;85;20980;-56
2021/11/10 05:30:48;;;;;;;17.23;3.30;;;;;;;0.94;84.65;103162.95;1626020;86;21123;-58
2021/11/10 05:33:15;;;;;;;6.65;3.05;;;;;;;0.97;83.93;103167.05;1597370;88;21103;-62
2021/11/10 05:35:42;;;;;;;6.00;2.50;;;;;;;1.00;84.00;103162.33;1641128;86;21837;-61
2021/11/10 05:38:08;;;;;;;5.37;2.70;;;;;;;0.99;81.26;103168.42;1641385;85;21064;-62
2021/11/10 05:40:36;;;;;;;5.37;2.85;;;;;;;1.00;81.39;103172.90;1634312;86;21075;-62
2021/11/10 05:43:05;;;;;;;5.12;2.75;;;;;;;1.02;81.82;103160.66;1640485;86;21084;-62
2021/11/10 05:45:33;;;;;;;4.83;2.80;;;;;;;1.02;82.03;103159.33;1634192;85;21131;-62
2021/11/10 05:48:00;;;;;;;7.03;2.75;;;;;;;1.03;81.32;103158.90;1596635;88;21221;-62
2021/11/10 05:50:26;;;;;;;4.92;2.60;;;;;;;1.04;80.65;103161.63;1614605;88;21113;-62
2021/11/10 05:52:53;;;;;;;5.70;2.65;;;;;;;1.04;80.92;103173.91;1639558;84;21163;-62
2021/11/10 05:55:24;;;;;;;4.35;2.50;;;;;;;1.05;80.64;103171.75;1638822;85;21132;-62
2021/11/10 05:57:49;;;;;;;3.70;2.67;;;;;;;1.08;80.83;103189.98;1635498;87;21045;-62
2021/11/10 06:00:16;;;;;;;4.50;2.50;;;;;;;1.08;80.47;103182.05;1629281;86;21856;-57
2021/11/10 06:02:44;;;;;;;7.83;2.50;;;;;;;1.07;79.77;103206.67;1642858;86;21551;-62
2021/11/10 06:05:14;;;;;;;5.50;2.45;;;;;;;1.05;79.26;103191.17;1639617;85;21088;-61
2021/11/10 06:07:40;;;;;;;4.72;2.83;;;;;;;1.06;79.91;103198.66;1646900;86;21076;-62
2021/11/10 06:10:08;;;;;;;4.92;2.83;;;;;;;1.08;80.08;103196.98;1643848;86;21099;-58
2021/11/10 06:12:36;;;;;;;4.83;2.75;;;;;;;1.10;80.16;103194.91;1636980;86;21122;-56
2021/11/10 06:15:06;;;;;;;7.10;2.72;;;;;;;1.12;79.90;103205.13;1623854;85;21154;-57
2021/11/10 06:17:32;;;;;;;4.58;3.00;;;;;;;1.10;77.93;103207.20;1633572;86;21083;-56
2021/11/10 06:20:01;;;;;;;5.55;2.47;;;;;;;1.08;78.35;103195.27;1633554;86;21078;-57
2021/11/10 06:22:28;;;;;;;8.98;3.02;;;;;;;1.08;78.44;103200.55;1642875;86;21096;-56
2021/11/10 06:24:55;;;;;;;4.70;2.65;;;;;;;1.06;78.16;103206.59;1644501;85;21118;-57
2021/11/10 06:27:21;;;;;;;8.25;2.65;;;;;;;1.04;78.47;103207.86;1630854;86;21116;-56
2021/11/10 06:29:48;;;;;;;7.30;2.80;;;;;;;1.05;78.98;103213.63;1623621;86;21041;-57
2021/11/10 06:32:15;;;;;;;4.78;2.45;;;;;;;1.09;78.79;103227.86;1620622;86;21613;-57
2021/11/10 06:34:42;;;;;;;11.15;3.35;;;;;;;1.11;78.19;103223.14;1622751;86;21127;-57
2021/11/10 06:37:08;;;;;;;13.60;3.85;;;;;;;1.16;78.31;103215.83;1618022;86;21161;-58
2021/11/10 06:39:34;;;;;;;11.68;3.33;;;;;;;1.19;77.82;103210.67;1611164;86;21108;-58
2021/11/10 06:42:02;;;;;;;6.55;2.83;;;;;;;1.23;77.62;103219.25;1626664;87;21605;-56
2021/11/10 06:44:28;;;;;;;8.40;2.67;;;;;;;1.32;77.79;103213.42;1640796;85;21047;-57
2021/11/10 06:46:59;;;;;;;20.85;3.47;;;;;;;1.42;77.61;103220.94;1635202;86;21635;-58
2021/11/10 06:49:24;;;;;;;8.65;2.90;;;;;;;1.50;77.06;103223.91;1620640;86;21519;-56
2021/11/10 06:51:50;;;;;;;14.68;3.50;;;;;;;1.54;76.60;103221.44;1613470;86;21479;-58
2021/11/10 06:54:17;;;;;;;14.45;3.27;;;;;;;1.56;76.73;103226.80;1621218;86;21096;-58
2021/11/10 06:56:43;;;;;;;6.70;2.75;;;;;;;1.56;76.56;103222.84;1619677;86;21610;-57
2021/11/10 06:59:10;;;;;;;13.15;3.70;;;;;;;1.55;75.58;103234.26;1614604;86;21148;-58
2021/11/10 07:01:36;;;;;;;4.50;2.60;;;;;;;1.60;76.18;103232.70;1624679;85;21199;-57
2021/11/10 07:04:05;;;;;;;4.33;2.30;;;;;;;1.68;75.91;103248.90;1607449;86;21138;-56
2021/11/10 07:06:32;;;;;;;6.83;2.92;;;;;;;1.75;75.39;103246.10;1614072;86;21086;-56
2021/11/10 07:08:58;;;;;;;20.25;4.62;;;;;;;1.77;74.75;103252.36;1610617;86;21120;-56
2021/11/10 07:11:25;;;;;;;8.13;3.35;;;;;;;1.75;74.87;103254.03;1608514;86;21646;-56
2021/11/10 07:13:52;;;;;;;14.20;3.30;;;;;;;1.79;74.36;103257.29;1618334;86;21805;-56
2021/11/10 07:16:20;;;;;;;10.08;3.25;;;;;;;1.82;74.64;103252.12;1625418;86;21515;-56
2021/11/10 07:18:47;;;;;;;7.08;2.90;;;;;;;1.82;74.02;103265.35;1625249;86;21122;-57
2021/11/10 07:21:13;;;;;;;8.00;2.70;;;;;;;1.82;73.99;103276.85;1624298;86;21134;-57
2021/11/10 07:23:41;;;;;;;7.05;2.60;;;;;;;1.87;73.77;103286.28;1624471;86;21047;-56
2021/11/10 07:26:07;;;;;;;5.60;2.92;;;;;;;1.90;73.70;103273.61;1622720;86;21553;-58
2021/11/10 07:28:34;;;;;;;6.70;2.98;;;;;;;1.91;73.91;103276.74;1625196;85;21105;-57
2021/11/10 07:31:00;;;;;;;5.47;2.80;;;;;;;1.94;74.04;103256.62;1640397;85;21087;-57
2021/11/10 07:33:27;;;;;;;10.08;2.92;;;;;;;1.95;73.87;103242.95;1630599;85;21494;-56
2021/11/10 07:35:54;;;;;;;7.80;2.35;;;;;;;1.99;74.24;103256.38;1634550;85;21119;-56
2021/11/10 07:38:24;;;;;;;4.97;2.20;;;;;;;2.04;73.53;103246.39;1638679;85;22933;-57
2021/11/10 07:40:49;;;;;;;4.97;3.00;;;;;;;2.11;73.54;103244.50;1641212;84;21097;-56
2021/11/10 07:43:16;;;;;;;15.70;3.37;;;;;;;2.20;73.86;103242.20;1607417;87;21136;-56
2021/11/10 07:45:49;;;;;;;5.17;2.85;;;;;;;2.29;72.92;103241.23;1605975;87;21116;-57
2021/11/10 07:48:12;;;;;;;10.23;3.72;;;;;;;2.36;72.57;103253.42;1606784;87;21096;-57
2021/11/10 07:50:39;;;;;;;4.67;2.77;;;;;;;2.40;73.16;103244.30;1577624;88;22028;-57
2021/11/10 07:53:06;;;;;;;4.85;3.08;;;;;;;2.49;72.96;103255.69;1635746;85;21558;-55
2021/11/10 07:55:33;;;;;;;4.50;2.70;;;;;;;2.56;71.30;103263.05;1634660;85;21062;-56
2021/11/10 07:58:00;;;;;;;4.47;3.02;;;;;;;2.58;71.19;103256.47;1636926;85;21148;-56
2021/11/10 08:00:27;;;;;;;5.58;3.17;;;;;;;2.56;70.96;103251.13;1638602;85;21278;-56
2021/11/10 08:02:53;;;;;;;8.40;3.02;;;;;;;2.54;71.31;103238.25;1633693;85;21632;-56
2021/11/10 08:05:20;;;;;;;6.35;3.42;;;;;;;2.56;70.57;103244.51;1634411;85;21095;-57
2021/11/10 08:07:47;;;;;;;5.97;3.17;;;;;;;2.57;71.02;103238.36;1611801;86;21096;-56
2021/11/10 08:10:15;;;;;;;7.40;3.75;;;;;;;2.64;71.48;103225.34;1605087;86;21612;-57
2021/11/10 08:12:42;;;;;;;8.85;3.30;;;;;;;2.73;71.25;103223.02;1591041;88;21105;-56
2021/11/10 08:15:11;;;;;;;3.95;2.90;;;;;;;2.84;71.15;103234.95;1631785;85;21443;-58
2021/11/10 08:17:38;;;;;;;13.32;4.37;;;;;;;2.92;70.41;103231.66;1641274;85;21103;-58
2021/11/10 08:20:08;;;;;;;15.03;4.25;;;;;;;2.97;70.92;103224.38;1607323;86;21147;-56
2021/11/10 08:22:37;;;;;;;10.00;4.42;;;;;;;3.04;71.41;103220.20;1635732;85;21148;-57
2021/11/10 08:25:07;;;;;;;12.53;4.72;;;;;;;3.13;71.56;103216.98;1639305;85;21096;-57
2021/11/10 08:27:35;;;;;;;15.30;4.70;;;;;;;3.23;71.79;103222.19;1642937;85;21165;-56
2021/11/10 08:30:05;;;;;;;9.33;4.25;;;;;;;3.32;71.16;103222.50;1622786;85;21130;-57
2021/11/10 08:32:33;;;;;;;5.60;4.00;;;;;;;3.36;70.64;103233.69;1614874;87;22582;-57
2021/11/10 08:34:59;;;;;;;7.40;4.15;;;;;;;3.38;70.52;103230.66;1614347;86;21524;-56
2021/11/10 08:37:26;;;;;;;5.87;3.80;;;;;;;3.44;69.98;103234.88;1613373;86;21097;-57
2021/11/10 08:39:53;;;;;;;7.62;4.03;;;;;;;3.55;69.89;103227.70;1604245;86;21856;-56
2021/11/10 08:42:19;;;;;;;6.72;3.92;;;;;;;3.64;69.65;103220.03;1607773;86;21115;-57
2021/11/10 08:44:51;;;;;;;9.40;4.40;;;;;;;3.79;69.43;103224.98;1608070;87;21122;-57
2021/11/10 08:47:15;;;;;;;12.03;4.80;;;;;;;3.90;69.03;103222.67;1612845;86;21156;-58
2021/11/10 08:49:43;;;;;;;11.70;4.75;;;;;;;3.94;69.00;103235.20;1605710;86;21515;-57
2021/11/10 08:52:11;;;;;;;9.48;4.58;;;;;;;3.95;68.96;103230.77;1611455;86;21149;-56
2021/11/10 08:54:37;;;;;;;6.17;4.03;;;;;;;3.95;68.80;103230.36;1612934;86;21608;-59
2021/11/10 08:57:05;;;;;;;7.03;4.20;;;;;;;4.00;69.00;103216.80;1610724;86;21236;-58
2021/11/10 08:59:32;;;;;;;8.18;4.90;;;;;;;4.08;68.18;103226.75;1608489;86;21113;-58
2021/11/10 09:02:00;;;;;;;7.78;4.83;;;;;;;4.10;68.12;103238.36;1612216;86;21167;-57
2021/11/10 09:04:27;;;;;;;13.60;4.83;;;;;;;4.10;68.12;103238.36;1611179;86;21166;-61
2021/11/10 09:06:54;;;;;;;8.43;4.60;;;;;;;4.07;67.82;103235.58;1607661;87;21160;-62
2021/11/10 09:09:21;;;;;;;9.78;4.28;;;;;;;4.08;67.89;103230.73;1607118;87;21585;-57
2021/11/10 09:11:51;;;;;;;11.05;4.85;;;;;;;4.10;68.08;103229.06;1603182;86;21120;-57
2021/11/10 09:14:18;;;;;;;8.33;5.15;;;;;;;4.15;67.76;103232.75;1609014;86;21184;-62
2021/11/10 09:16:45;;;;;;;10.08;4.90;;;;;;;4.09;67.27;103237.84;1612382;86;21070;-61
2021/11/10 09:19:12;;;;;;;13.45;4.80;;;;;;;4.04;67.30;103234.15;1609934;86;21142;-62
2021/11/10 09:21:39;;;;;;;8.03;4.50;;;;;;;4.03;67.60;103228.36;1612909;86;21102;-61
2021/11/10 09:24:06;;;;;;;15.28;5.45;;;;;;;4.06;67.64;103229.38;1615527;86;22079;-61
2021/11/10 09:26:35;;;;;;;8.40;5.30;;;;;;;4.10;67.12;103236.59;1612394;86;21123;-62
2021/11/10 09:29:05;;;;;;;15.40;5.65;;;;;;;4.18;67.26;103234.59;1612617;86;21096;-58
2021/11/10 09:31:32;;;;;;;12.60;5.47;;;;;;;4.23;66.67;103233.89;1616171;86;21578;-59
2021/11/10 09:34:03;;;;;;;18.30;6.22;;;;;;;4.24;66.62;103233.03;1624830;86;21125;-62
2021/11/10 09:36:27;;;;;;;15.93;5.08;;;;;;;4.26;66.40;103228.67;1619564;86;21678;-62
2021/11/10 09:38:55;;;;;;;14.23;5.15;;;;;;;4.35;66.53;103219.20;1613811;86;21045;-62
2021/11/10 12:40:59;;;;;;;6.35;3.12;;;;;;;4.50;61.97;103165.17;1820614;77;21178;-64
2021/11/10 12:46:05;;;;;;;4.58;2.83;;;;;;;4.51;61.44;103173.61;1822085;77;20962;-63
2021/11/10 12:48:50;;;;;;;4.00;2.17;;;;;;;4.49;60.59;103174.00;1833856;77;21024;-66
2021/11/10 12:53:50;;;;;;;10.78;3.17;;;;;;;4.50;60.74;103171.81;1829951;76;21460;-63
2021/11/10 12:56:17;;;;;;;16.27;2.77;;;;;;;4.48;60.97;103161.58;1828384;77;22094;-63
2021/11/10 12:58:44;;;;;;;11.08;2.85;;;;;;;4.48;60.97;103161.58;1820626;77;21083;-64
2021/11/10 13:01:14;;;;;;;6.97;2.35;;;;;;;4.52;60.97;103164.78;1823077;77;21303;-62
2021/11/10 13:06:22;;;;;;;6.87;2.80;;;;;;;4.54;60.39;103172.41;1829038;76;21054;-64
2021/11/10 13:09:03;;;;;;;13.32;2.62;;;;;;;4.54;60.90;103164.84;1819964;77;21519;-63
2021/11/10 13:11:35;;;;;;;6.58;2.90;;;;;;;4.58;61.65;103166.73;1822707;77;21028;-63
2021/11/10 13:14:15;;;;;;;9.03;2.65;;;;;;;4.65;62.01;103162.50;1825447;77;21078;-66
2021/11/10 13:17:07;;;;;;;7.25;2.50;;;;;;;4.70;62.09;103163.11;1789038;78;21918;-65
2021/11/10 13:19:54;;;;;;;6.95;2.12;;;;;;;4.81;61.42;103168.73;1749914;80;21842;-63
2021/11/10 13:25:13;;;;;;;13.72;2.77;;;;;;;4.97;60.00;103166.47;1758807;80;21068;-65
2021/11/10 13:30:32;;;;;;;4.50;2.87;;;;;;;5.09;59.87;103161.50;1756726;80;21810;-68
2021/11/10 13:33:31;;;;;;;3.12;2.30;;;;;;;5.11;59.04;103145.15;1749266;79;21015;-65
2021/11/10 13:36:19;;;;;;;5.05;2.47;;;;;;;5.13;58.66;103156.72;1746532;79;21099;-63
2021/11/10 13:42:41;;;;;;;4.28;2.30;;;;;;;5.22;58.54;103156.52;1750764;79;20955;-61
2021/11/10 13:45:14;;;;;;;7.78;3.15;;;;;;;5.31;58.39;103154.08;1783327;78;21156;-61
2021/11/10 13:47:55;;;;;;;4.30;2.67;;;;;;;5.32;57.89;103159.87;1755060;80;21051;-61
2021/11/10 13:50:25;;;;;;;4.28;2.65;;;;;;;5.31;58.03;103154.08;1782719;79;21010;-60
2021/11/10 13:53:08;;;;;;;4.28;2.75;;;;;;;5.28;58.12;103161.98;1758086;79;21043;-60
2021/11/10 13:55:37;;;;;;;8.55;3.08;;;;;;;5.20;58.52;103155.13;1735133;81;21104;-61
2021/11/10 13:58:11;;;;;;;5.15;3.00;;;;;;;5.20;58.22;103163.56;1742149;79;21170;-60
2021/11/10 14:00:38;;;;;;;5.72;3.33;;;;;;;5.20;58.22;103163.56;1751153;79;21145;-60
2021/11/10 14:03:04;;;;;;;7.05;3.15;;;;;;;5.19;58.04;103159.06;1749660;80;20992;-62
2021/11/10 14:05:31;;;;;;;4.80;2.80;;;;;;;5.16;58.08;103149.27;1753557;79;21125;-60
2021/11/10 14:07:58;;;;;;;7.28;3.10;;;;;;;5.12;57.95;103152.27;1747475;79;21527;-60
2021/11/10 14:10:32;;;;;;;6.33;3.15;;;;;;;5.10;57.45;103153.98;1743365;80;22673;-62
2021/11/10 14:13:01;;;;;;;5.75;3.30;;;;;;;5.08;57.04;103145.08;1749045;80;20886;-62
2021/11/10 14:15:39;;;;;;;6.10;3.05;;;;;;;5.06;56.83;103141.47;1760584;79;20978;-60
2021/11/10 14:18:13;;;;;;;8.55;4.00;;;;;;;5.05;56.79;103135.69;1747105;80;21130;-61
2021/11/10 14:20:55;;;;;;;8.85;3.52;;;;;;;5.05;56.79;103135.69;1774747;78;21543;-58
2021/11/10 14:23:26;;;;;;;7.50;2.92;;;;;;;5.02;56.63;103131.63;1768657;77;22167;-60
2021/11/10 14:25:59;;;;;;;8.28;3.25;;;;;;;5.00;56.09;103126.70;1782087;79;21011;-60
2021/11/10 14:28:35;;;;;;;8.30;3.35;;;;;;;5.00;55.73;103121.37;1776787;78;21182;-58
2021/11/10 14:31:08;;;;;;;6.05;3.60;;;;;;;4.99;55.49;103128.89;1778290;79;21325;-60
2021/11/10 14:33:36;;;;;;;9.95;4.08;;;;;;;4.99;55.36;103124.89;1767177;79;21461;-59
2021/11/10 14:36:17;;;;;;;8.90;3.50;;;;;;;4.98;55.50;103129.30;1764430;79;21610;-58
2021/11/10 14:38:50;;;;;;;8.23;3.75;;;;;;;4.94;54.81;103134.48;1750311;80;21423;-58
2021/11/10 14:41:35;;;;;;;7.35;3.90;;;;;;;4.90;54.67;103125.55;1771399;78;22589;-61
2021/11/10 14:43:57;;;;;;;8.38;3.47;;;;;;;4.86;54.16;103120.56;1765130;79;21048;-58
2021/11/10 14:46:37;;;;;;;8.20;3.72;;;;;;;4.85;54.05;103120.09;1761531;79;21387;-58
2021/11/10 14:49:16;;;;;;;6.95;3.35;;;;;;;4.84;53.73;103124.95;1769010;78;21875;-60
2021/11/10 14:52:05;;;;;;;8.55;3.58;;;;;;;4.81;53.14;103128.86;1772719;78;21060;-58
2021/11/10 14:54:35;;;;;;;10.50;3.15;;;;;;;4.81;53.30;103118.22;1783166;78;21363;-58
2021/11/10 14:57:11;;;;;;;6.45;3.15;;;;;;;4.78;53.30;103123.45;1777145;78;21393;-58